Time;durP1;ratioP1;P1;durP2;ratioP2;P2;SDS_P1;SDS_P2;PMS_P1;PMS_P2;Temp;Humidity;BMP_temperature;BMP_pressure;BME280_temperature;BME280_humidity;BME280_pressure;Samples;Min_cycle;Max_cycle;Signal;HPM_P1;HPM_P2
2023/07/09 00:00:23;;;;;;;2.50;1.90;;;18.40;27.20;;;;;;5182280;28;20037;-69
2023/07/09 00:02:59;;;;;;;4.88;2.17;;;18.40;90.90;;;;;;5214208;28;20217;-69
2023/07/09 00:05:35;;;;;;;4.75;2.05;;;18.40;1.00;;;;;;5203822;28;20041;-69
2023/07/09 00:08:27;;;;;;;2.78;2.05;;;18.50;1.00;;;;;;5222302;28;20345;-68
2023/07/09 00:11:00;;;;;;;3.47;2.20;;;18.40;1.00;;;;;;5183777;28;20619;-67
2023/07/09 00:13:37;;;;;;;5.22;2.05;;;18.40;99.90;;;;;;5200720;28;20529;-68
2023/07/09 00:16:24;;;;;;;2.40;2.00;;;18.40;99.90;;;;;;5200104;28;20047;-66
2023/07/09 00:18:58;;;;;;;3.00;2.10;;;18.30;99.90;;;;;;5166209;28;20045;-68
2023/07/09 00:21:34;;;;;;;4.40;2.35;;;18.20;1.00;;;;;;5167180;28;20043;-68
2023/07/09 00:24:05;;;;;;;5.05;2.40;;;18.10;1.00;;;;;;5201613;28;20032;-68
2023/07/09 00:26:41;;;;;;;4.38;2.28;;;18.10;1.00;;;;;;5167596;28;20112;-68
2023/07/09 00:29:16;;;;;;;2.65;2.45;;;18.10;1.00;;;;;;5168526;28;20052;-69
2023/07/09 00:31:50;;;;;;;6.20;2.45;;;18.10;1.00;;;;;;5198053;28;20041;-69
2023/07/09 00:34:24;;;;;;;2.97;2.20;;;18.10;1.00;;;;;;5199262;28;20044;-69
2023/07/09 00:36:58;;;;;;;4.70;2.47;;;18.10;1.00;;;;;;5198741;28;20030;-67
2023/07/09 00:39:33;;;;;;;3.42;2.10;;;18.00;1.00;;;;;;5200877;28;20021;-69
2023/07/09 00:42:05;;;;;;;;;;;17.90;1.00;;;;;;5217156;28;20025;-68
2023/07/09 00:44:43;;;;;;;5.13;2.22;;;17.90;40.70;;;;;;5201108;28;19913;-67
2023/07/09 00:47:26;;;;;;;2.40;2.20;;;17.90;1.00;;;;;;5164807;28;20041;-70
2023/07/09 00:50:22;;;;;;;3.75;2.25;;;17.80;14.80;;;;;;5200334;28;20029;-69
2023/07/09 00:53:18;;;;;;;4.32;2.67;;;17.80;67.00;;;;;;5198941;28;20376;-69
2023/07/09 00:56:01;;;;;;;5.80;2.83;;;17.80;99.90;;;;;;5199064;28;20039;-67
2023/07/09 00:58:37;;;;;;;3.40;1.98;;;17.70;99.90;;;;;;5182827;28;20035;-70
2023/07/09 01:03:57;;;;;;;3.22;2.75;;;17.70;99.90;;;;;;5110706;28;20275;-67
2023/07/09 01:06:48;;;;;;;4.05;2.45;;;17.70;99.90;;;;;;5154800;28;20133;-68
2023/07/09 01:09:21;;;;;;;3.00;2.30;;;17.60;99.90;;;;;;5181498;28;20377;-69
2023/07/09 01:11:56;;;;;;;3.08;2.30;;;17.50;99.90;;;;;;5181388;28;20042;-69
2023/07/09 01:14:31;;;;;;;3.17;2.25;;;17.40;1.00;;;;;;5116197;28;20029;-69
2023/07/09 01:17:05;;;;;;;2.67;2.38;;;17.30;1.00;;;;;;5196067;28;20325;-69
2023/07/09 01:19:44;;;;;;;3.80;2.22;;;17.30;1.00;;;;;;5181279;28;20266;-68
2023/07/09 01:22:21;;;;;;;4.72;3.22;;;17.40;1.00;;;;;;5161709;28;20021;-66
2023/07/09 01:25:06;;;;;;;3.33;2.95;;;17.40;1.00;;;;;;5116640;28;20031;-68
2023/07/09 01:27:41;;;;;;;3.08;2.55;;;17.30;1.00;;;;;;5181787;28;20055;-67
2023/07/09 01:30:22;;;;;;;7.20;2.83;;;17.30;1.00;;;;;;5113216;29;20043;-67
2023/07/09 01:32:57;;;;;;;3.95;2.63;;;17.20;1.00;;;;;;5175017;28;20033;-68
2023/07/09 01:35:36;;;;;;;2.85;2.60;;;17.20;1.00;;;;;;5180689;28;20033;-70
2023/07/09 01:38:08;;;;;;;5.32;2.45;;;17.20;1.00;;;;;;5159609;28;20040;-68
2023/07/09 01:40:42;;;;;;;2.85;2.33;;;17.10;1.00;;;;;;5161195;28;20031;-69
2023/07/09 01:43:17;;;;;;;9.93;3.00;;;17.10;1.00;;;;;;5178261;28;20255;-69
2023/07/09 01:45:51;;;;;;;3.28;2.50;;;17.00;1.00;;;;;;5194871;28;20285;-69
2023/07/09 01:48:25;;;;;;;3.97;2.72;;;17.00;1.00;;;;;;5181424;28;20153;-66
2023/07/09 01:50:57;;;;;;;2.95;2.42;;;17.00;1.00;;;;;;5162543;28;20324;-68
2023/07/09 01:53:30;;;;;;;2.65;2.35;;;16.90;1.00;;;;;;5199874;28;20221;-66
2023/07/09 01:56:03;;;;;;;3.55;2.63;;;16.90;1.00;;;;;;5147975;28;20308;-68
2023/07/09 01:58:35;;;;;;;4.40;2.65;;;16.90;1.00;;;;;;5176366;28;20335;-67
2023/07/09 02:01:10;;;;;;;4.70;3.10;;;16.90;1.00;;;;;;5166701;28;20350;-66
2023/07/09 02:03:42;;;;;;;5.47;2.70;;;16.90;1.00;;;;;;5200047;28;20037;-69
2023/07/09 02:06:13;;;;;;;3.80;2.92;;;16.80;1.00;;;;;;5217357;28;20045;-66
2023/07/09 02:08:45;;;;;;;6.15;3.08;;;16.80;1.00;;;;;;5234713;28;20036;-68
2023/07/09 02:11:17;;;;;;;5.07;2.80;;;16.80;1.00;;;;;;5217142;28;20043;-68
2023/07/09 02:13:50;;;;;;;3.15;2.33;;;16.70;1.00;;;;;;5217172;28;20028;-68
2023/07/09 02:16:23;;;;;;;4.93;2.67;;;16.70;1.00;;;;;;5200330;28;20037;-69
2023/07/09 02:18:55;;;;;;;2.70;2.47;;;16.70;1.00;;;;;;5233863;28;20320;-67
2023/07/09 02:21:29;;;;;;;6.25;4.68;;;16.70;1.00;;;;;;5200849;28;20037;-69
2023/07/09 02:24:02;;;;;;;3.30;2.63;;;16.70;1.00;;;;;;5234928;28;20286;-68
2023/07/09 02:26:33;;;;;;;3.13;2.83;;;16.60;1.00;;;;;;5216968;28;20043;-68
2023/07/09 02:29:07;;;;;;;2.60;2.40;;;16.60;1.00;;;;;;5200584;28;20297;-67
2023/07/09 02:31:40;;;;;;;3.53;2.90;;;16.50;1.00;;;;;;5216734;28;20031;-67
2023/07/09 02:34:11;;;;;;;3.22;2.70;;;16.50;1.00;;;;;;5234941;28;20055;-68
2023/07/09 02:36:46;;;;;;;2.50;2.22;;;16.50;1.00;;;;;;5238803;28;20024;-68
2023/07/09 02:39:17;;;;;;;;;;;16.50;1.00;;;;;;5238741;28;20035;-67
2023/07/09 02:41:51;;;;;;;3.25;2.72;;;16.40;1.00;;;;;;5239070;28;19901;-67
2023/07/09 02:44:22;;;;;;;3.60;2.97;;;16.40;1.00;;;;;;5220013;28;20040;-69
2023/07/09 02:46:59;;;;;;;3.38;2.53;;;16.40;1.00;;;;;;5203442;28;20032;-68
2023/07/09 02:49:31;;;;;;;3.35;2.75;;;16.40;1.00;;;;;;5236831;28;20200;-68
2023/07/09 02:52:06;;;;;;;3.42;2.40;;;16.40;1.00;;;;;;5203654;28;20062;-68
2023/07/09 02:54:58;;;;;;;3.13;2.25;;;16.40;1.00;;;;;;5216021;28;20184;-68
2023/07/09 02:57:35;;;;;;;6.03;3.00;;;16.30;1.00;;;;;;5203250;28;20039;-69
2023/07/09 03:00:09;;;;;;;2.95;2.60;;;16.40;1.00;;;;;;5219156;28;20035;-68
2023/07/09 03:02:42;;;;;;;2.80;2.58;;;16.30;1.00;;;;;;5207992;28;20199;-67
2023/07/09 03:05:17;;;;;;;4.20;2.58;;;16.30;1.00;;;;;;5119834;28;20216;-67
2023/07/09 03:07:48;;;;;;;3.22;2.78;;;16.20;1.00;;;;;;5119275;28;20053;-69
2023/07/09 03:10:20;;;;;;;3.10;2.80;;;16.30;1.00;;;;;;5182250;28;20041;-68
2023/07/09 03:12:54;;;;;;;3.28;2.78;;;16.30;1.00;;;;;;5185699;28;20035;-69
2023/07/09 03:15:31;;;;;;;3.05;2.28;;;16.40;1.00;;;;;;5165636;28;20408;-67
2023/07/09 03:18:05;;;;;;;5.18;3.70;;;16.40;1.00;;;;;;5186297;28;20443;-69
2023/07/09 03:20:39;;;;;;;2.85;2.50;;;16.40;1.00;;;;;;5201142;28;20064;-69
2023/07/09 03:23:10;;;;;;;4.30;2.92;;;16.40;1.00;;;;;;5168481;28;20346;-69
2023/07/09 03:25:42;;;;;;;3.55;3.00;;;16.60;1.00;;;;;;5172177;28;20129;-68
2023/07/09 03:28:19;;;;;;;3.50;3.13;;;16.60;1.00;;;;;;5184087;28;20046;-70
2023/07/09 03:30:54;;;;;;;3.55;2.42;;;16.70;1.00;;;;;;5192164;28;20220;-69
2023/07/09 03:33:25;;;;;;;;;;;16.70;1.00;;;;;;5201602;28;20020;-67
2023/07/09 03:35:56;;;;;;;2.80;2.42;;;16.90;1.00;;;;;;5118249;28;19914;-69
2023/07/09 03:38:28;;;;;;;3.47;2.63;;;17.00;1.00;;;;;;5183030;28;20043;-69
2023/07/09 03:41:00;;;;;;;3.00;2.63;;;17.20;1.00;;;;;;5182931;28;20049;-67
2023/07/09 03:43:31;;;;;;;5.15;3.70;;;17.30;1.00;;;;;;5200488;28;20043;-68
2023/07/09 03:46:03;;;;;;;4.05;2.83;;;17.40;1.00;;;;;;5179492;28;20043;-69
2023/07/09 03:48:34;;;;;;;3.05;2.70;;;17.60;1.00;;;;;;5184104;28;20220;-71
2023/07/09 03:51:09;;;;;;;2.67;2.45;;;17.70;1.00;;;;;;5184327;28;20049;-68
2023/07/09 03:53:40;;;;;;;;;;;17.90;1.00;;;;;;5184591;28;20326;-69
2023/07/09 03:56:11;;;;;;;2.75;2.40;;;18.10;1.00;;;;;;5182943;28;20135;-69
2023/07/09 03:58:43;;;;;;;3.72;2.95;;;18.30;1.00;;;;;;5179612;28;20055;-67
2023/07/09 04:01:17;;;;;;;5.60;2.70;;;18.50;1.00;;;;;;5181888;28;20439;-68
2023/07/09 04:03:48;;;;;;;2.85;2.53;;;18.70;99.90;;;;;;5103940;28;20027;-68
2023/07/09 04:06:22;;;;;;;4.18;2.92;;;18.90;94.50;;;;;;5181836;28;20039;-70
2023/07/09 04:08:53;;;;;;;3.00;2.65;;;19.10;1.00;;;;;;5117764;28;20042;-68
2023/07/09 04:11:28;;;;;;;3.08;2.30;;;19.40;1.00;;;;;;5118799;28;20033;-69
2023/07/09 04:14:01;;;;;;;3.10;2.63;;;19.70;99.90;;;;;;5117717;28;20363;-68
2023/07/09 04:16:32;;;;;;;5.05;3.00;;;19.90;99.90;;;;;;5163408;28;20065;-69
2023/07/09 04:19:06;;;;;;;3.67;2.70;;;20.00;1.00;;;;;;5183532;28;20039;-69
2023/07/09 04:21:37;;;;;;;2.92;2.60;;;19.90;17.40;;;;;;5183425;28;20168;-69
2023/07/09 04:24:11;;;;;;;4.43;2.35;;;20.10;1.00;;;;;;5183053;28;20042;-71
2023/07/09 04:26:43;;;;;;;2.47;2.25;;;20.30;1.00;;;;;;5182801;28;20065;-68
2023/07/09 04:29:14;;;;;;;4.65;2.55;;;20.60;1.00;;;;;;5182646;28;20043;-70
2023/07/09 04:31:45;;;;;;;3.00;2.50;;;20.90;99.90;;;;;;5179529;28;20049;-68
2023/07/09 04:34:16;;;;;;;4.03;2.67;;;21.10;28.40;;;;;;5183174;28;20049;-68
2023/07/09 04:36:48;;;;;;;8.70;2.88;;;21.30;1.00;;;;;;5198093;28;20228;-69
2023/07/09 04:39:20;;;;;;;2.22;1.95;;;21.50;1.00;;;;;;5181934;28;20043;-69
2023/07/09 04:41:52;;;;;;;4.72;2.10;;;21.60;99.90;;;;;;5165798;28;20043;-68
2023/07/09 04:44:24;;;;;;;4.47;2.28;;;21.80;99.90;;;;;;5182358;28;20024;-68
2023/07/09 04:46:56;;;;;;;4.07;2.38;;;21.90;1.00;;;;;;5179389;28;20035;-68
2023/07/09 04:49:30;;;;;;;2.63;2.15;;;22.20;1.00;;;;;;5181771;28;20042;-69
2023/07/09 04:52:05;;;;;;;2.63;2.15;;;22.40;1.00;;;;;;5182918;28;20027;-69
2023/07/09 04:54:38;;;;;;;4.07;2.15;;;22.60;1.00;;;;;;5181854;28;20047;-67
2023/07/09 04:57:13;;;;;;;3.30;2.08;;;22.80;99.90;;;;;;5180721;28;20061;-69
2023/07/09 04:59:44;;;;;;;2.22;2.00;;;22.90;99.90;;;;;;5180576;28;20225;-69
2023/07/09 05:02:18;;;;;;;2.67;1.90;;;23.00;99.90;;;;;;5179195;28;20120;-70
2023/07/09 05:04:50;;;;;;;2.83;1.90;;;23.00;81.60;;;;;;5198424;28;20239;-69
2023/07/09 05:07:27;;;;;;;3.28;2.17;;;23.20;1.00;;;;;;5165528;28;20038;-69
2023/07/09 05:09:58;;;;;;;3.45;2.40;;;23.40;1.00;;;;;;5180205;28;20295;-69
2023/07/09 05:12:35;;;;;;;3.92;2.53;;;23.40;1.00;;;;;;5180602;28;20030;-69
2023/07/09 05:15:12;;;;;;;2.33;2.00;;;23.00;1.00;;;;;;5178667;28;20023;-70
2023/07/09 05:17:43;;;;;;;3.00;2.20;;;23.10;1.00;;;;;;5182158;28;20039;-68
2023/07/09 05:20:17;;;;;;;3.00;2.03;;;23.40;1.00;;;;;;5164777;28;20039;-69
2023/07/09 05:22:50;;;;;;;2.53;2.08;;;23.70;1.00;;;;;;5199497;28;20039;-68
2023/07/09 05:25:21;;;;;;;5.50;2.70;;;23.90;1.00;;;;;;5165512;28;20036;-69
2023/07/09 05:27:53;;;;;;;3.20;2.30;;;24.10;1.00;;;;;;5181439;28;20228;-69
2023/07/09 05:30:28;;;;;;;2.97;2.40;;;24.30;1.00;;;;;;5178177;28;20160;-71
2023/07/09 05:33:00;;;;;;;2.13;1.73;;;24.20;1.00;;;;;;5180516;28;20356;-70
2023/07/09 05:35:31;;;;;;;2.50;2.08;;;24.10;1.00;;;;;;5197919;28;20304;-69
2023/07/09 05:38:02;;;;;;;2.20;1.95;;;23.90;1.00;;;;;;5181722;28;20039;-68
2023/07/09 05:40:39;;;;;;;3.08;2.03;;;23.80;1.00;;;;;;5116214;28;20035;-69
2023/07/09 05:43:14;;;;;;;3.78;2.15;;;24.10;1.00;;;;;;5116394;29;20239;-69
2023/07/09 05:45:47;;;;;;;;;;;24.00;1.00;;;;;;5179201;28;20046;-70
2023/07/09 05:48:21;;;;;;;2.65;2.25;;;24.10;1.00;;;;;;5115682;28;20000;-69
2023/07/09 05:50:55;;;;;;;4.10;1.90;;;24.10;1.00;;;;;;5182662;28;20243;-69
2023/07/09 05:53:27;;;;;;;3.22;2.60;;;24.50;1.00;;;;;;5183795;28;20031;-69
2023/07/09 05:55:59;;;;;;;2.42;1.80;;;24.80;1.00;;;;;;5182762;28;20113;-69
2023/07/09 05:58:31;;;;;;;2.25;2.05;;;24.90;99.90;;;;;;5181039;28;20050;-70
2023/07/09 06:01:02;;;;;;;2.28;1.90;;;25.30;99.90;;;;;;5189743;28;20048;-69
2023/07/09 06:03:36;;;;;;;3.65;2.45;;;25.70;99.90;;;;;;5210726;28;20045;-69
2023/07/09 06:06:07;;;;;;;2.13;1.92;;;26.10;1.00;;;;;;5202903;28;20183;-69
2023/07/09 06:08:41;;;;;;;2.47;2.10;;;25.90;1.00;;;;;;5205163;28;20059;-69
2023/07/09 06:11:13;;;;;;;2.60;1.88;;;26.40;1.00;;;;;;5224977;28;20041;-69
2023/07/09 06:13:46;;;;;;;4.68;2.33;;;27.10;1.00;;;;;;5205535;28;20318;-69
2023/07/09 06:16:23;;;;;;;2.28;2.03;;;27.60;1.00;;;;;;5185947;28;20043;-69
2023/07/09 06:18:57;;;;;;;3.03;1.98;;;28.00;99.90;;;;;;5206663;28;20052;-69
2023/07/09 06:21:30;;;;;;;5.38;2.15;;;28.50;99.90;;;;;;5189160;28;20041;-70
2023/07/09 06:24:07;;;;;;;4.15;2.15;;;29.00;99.90;;;;;;5224501;28;20025;-72
2023/07/09 06:26:38;;;;;;;2.92;2.15;;;29.50;99.90;;;;;;5188957;28;20050;-69
2023/07/09 06:29:09;;;;;;;6.40;2.35;;;29.50;99.90;;;;;;5205416;28;20033;-69
2023/07/09 06:31:42;;;;;;;2.10;1.90;;;29.30;1.00;;;;;;5202829;28;20407;-70
2023/07/09 06:34:13;;;;;;;4.00;2.83;;;29.50;1.00;;;;;;5224681;28;20027;-71
2023/07/09 06:36:45;;;;;;;3.72;2.50;;;29.70;1.00;;;;;;5223261;28;20025;-71
2023/07/09 06:39:20;;;;;;;3.35;2.42;;;30.00;1.00;;;;;;5206315;28;20451;-69
2023/07/09 06:41:54;;;;;;;2.30;1.92;;;30.50;1.00;;;;;;5205934;28;20267;-69
2023/07/09 06:44:28;;;;;;;2.70;2.50;;;30.70;1.00;;;;;;5224133;28;20017;-70
2023/07/09 06:46:59;;;;;;;;;;;31.00;1.00;;;;;;5203390;28;20021;-69
2023/07/09 06:49:30;;;;;;;2.45;1.98;;;31.10;1.00;;;;;;5223102;28;20148;-72
2023/07/09 06:52:05;;;;;;;3.55;2.15;;;31.40;1.00;;;;;;5206139;28;20043;-70
2023/07/09 06:54:36;;;;;;;2.80;2.35;;;31.80;1.00;;;;;;5205342;28;20351;-70
2023/07/09 06:57:07;;;;;;;3.40;2.63;;;32.20;1.00;;;;;;5204666;28;20229;-71
2023/07/09 06:59:47;;;;;;;2.85;2.33;;;32.30;1.00;;;;;;5223247;28;20289;-70
2023/07/09 07:02:19;;;;;;;2.33;2.13;;;32.00;1.00;;;;;;5184999;28;20345;-70
2023/07/09 07:04:53;;;;;;;3.88;2.30;;;31.70;1.00;;;;;;5205797;28;20333;-70
2023/07/09 07:07:28;;;;;;;2.75;2.30;;;31.50;1.00;;;;;;5222645;28;20103;-70
2023/07/09 07:10:03;;;;;;;3.50;2.60;;;31.40;1.00;;;;;;5199847;28;20044;-72
2023/07/09 07:12:51;;;;;;;1.92;1.70;;;31.90;1.00;;;;;;5196495;28;20071;-70
2023/07/09 07:15:22;;;;;;;4.88;2.30;;;31.90;1.00;;;;;;5185865;28;20041;-70
2023/07/09 07:17:53;;;;;;;2.63;1.98;;;32.20;1.00;;;;;;5206093;28;20028;-71
2023/07/09 07:20:25;;;;;;;4.70;2.33;;;32.40;1.00;;;;;;5183204;28;20119;-70
2023/07/09 07:22:57;;;;;;;3.13;2.10;;;32.20;1.00;;;;;;5199474;28;20506;-71
2023/07/09 07:25:30;;;;;;;2.78;2.20;;;32.60;99.90;;;;;;5205289;28;20103;-70
2023/07/09 07:28:04;;;;;;;2.47;2.28;;;32.90;1.00;;;;;;5223828;28;20214;-70
2023/07/09 07:30:35;;;;;;;;;;;32.80;99.90;;;;;;5221109;28;20041;-70
2023/07/09 07:33:06;;;;;;;3.00;2.50;;;33.10;99.90;;;;;;5222125;28;19916;-70
2023/07/09 07:35:40;;;;;;;4.63;2.90;;;33.40;99.90;;;;;;5205786;28;20045;-71
2023/07/09 07:38:14;;;;;;;3.60;2.13;;;33.30;99.90;;;;;;5189625;28;20044;-70
2023/07/09 07:40:45;;;;;;;2.58;2.20;;;33.00;99.90;;;;;;5205913;28;20309;-70
2023/07/09 07:43:17;;;;;;;3.50;2.53;;;32.80;99.90;;;;;;5224005;28;20421;-70
2023/07/09 07:45:48;;;;;;;2.60;2.05;;;32.90;99.90;;;;;;5194291;28;20041;-70
2023/07/09 07:48:25;;;;;;;4.05;2.67;;;32.90;99.90;;;;;;5223545;28;20020;-70
2023/07/09 07:51:04;;;;;;;2.28;2.00;;;32.70;99.90;;;;;;5224356;28;20291;-70
2023/07/09 07:53:35;;;;;;;3.13;2.15;;;32.80;99.90;;;;;;5205617;28;20230;-71
2023/07/09 07:56:09;;;;;;;4.82;2.33;;;32.90;99.90;;;;;;5223170;28;20020;-71
2023/07/09 07:58:40;;;;;;;3.38;2.17;;;33.10;99.90;;;;;;5223170;28;20032;-70
2023/07/09 08:01:11;;;;;;;2.55;2.35;;;33.40;99.90;;;;;;5201839;28;20036;-70
2023/07/09 08:03:45;;;;;;;2.65;2.40;;;33.30;99.90;;;;;;5187516;28;20306;-70
2023/07/09 08:06:16;;;;;;;5.03;2.28;;;33.30;99.90;;;;;;5189140;28;20039;-71
2023/07/09 08:08:50;;;;;;;3.28;2.15;;;33.40;99.90;;;;;;5187764;28;20032;-70
2023/07/09 08:11:21;;;;;;;2.90;2.60;;;33.30;99.90;;;;;;5184596;28;20365;-69
2023/07/09 08:13:53;;;;;;;3.20;2.50;;;33.10;99.90;;;;;;5184999;28;20238;-70
2023/07/09 08:16:29;;;;;;;3.08;2.30;;;32.80;99.90;;;;;;5165081;28;20322;-71
2023/07/09 08:19:02;;;;;;;2.60;2.30;;;32.90;99.90;;;;;;5184341;28;20035;-70
2023/07/09 08:21:36;;;;;;;2.38;1.90;;;32.80;99.90;;;;;;5184980;28;20684;-70
2023/07/09 08:24:10;;;;;;;;;;;33.20;99.90;;;;;;5169799;28;20038;-69
2023/07/09 08:26:41;;;;;;;3.17;2.20;;;33.60;99.90;;;;;;5169460;28;19911;-70
2023/07/09 08:29:21;;;;;;;3.72;2.13;;;34.20;99.90;;;;;;5220930;28;20107;-69
2023/07/09 08:31:52;;;;;;;2.38;2.08;;;34.50;99.90;;;;;;5186517;28;20040;-69
2023/07/09 08:34:29;;;;;;;3.38;2.42;;;34.50;99.90;;;;;;5204673;28;20040;-71
2023/07/09 08:37:02;;;;;;;4.85;2.28;;;34.60;99.90;;;;;;5205543;28;20043;-71
2023/07/09 08:39:33;;;;;;;2.88;2.53;;;34.60;99.90;;;;;;5223884;28;20033;-71
2023/07/09 08:42:09;;;;;;;2.65;2.30;;;34.60;99.90;;;;;;5207059;28;20090;-70
2023/07/09 08:45:25;;;;;;;3.03;2.40;;;34.40;99.90;;;;;;5188922;28;20037;-70
2023/07/09 08:48:29;;;;;;;3.50;3.10;;;34.20;99.90;;;;;;5191121;28;20033;-70
2023/07/09 08:51:13;;;;;;;2.72;2.30;;;34.30;99.90;;;;;;5206064;28;20063;-69
2023/07/09 08:54:00;;;;;;;2.40;2.20;;;34.50;99.90;;;;;;5225216;28;20091;-71
2023/07/09 08:56:36;;;;;;;2.50;2.30;;;35.00;99.90;;;;;;5190017;28;20105;-70
2023/07/09 08:59:11;;;;;;;2.78;2.28;;;35.20;99.90;;;;;;5172010;28;20041;-70
2023/07/09 09:01:59;;;;;;;3.08;2.58;;;35.30;99.90;;;;;;5185895;28;20045;-70
2023/07/09 09:04:36;;;;;;;3.42;2.08;;;35.50;99.90;;;;;;5204844;28;20037;-71
2023/07/09 09:07:20;;;;;;;3.55;2.88;;;35.50;99.90;;;;;;5198707;28;20033;-70
2023/07/09 09:10:01;;;;;;;3.00;2.15;;;35.20;54.60;;;;;;5201140;28;20056;-71
2023/07/09 09:12:43;;;;;;;7.30;4.43;;;35.30;99.90;;;;;;5185148;28;20037;-70
2023/07/09 09:15:20;;;;;;;2.40;2.20;;;35.10;99.90;;;;;;5189234;28;20329;-70
2023/07/09 09:17:59;;;;;;;2.70;2.45;;;34.90;80.60;;;;;;5201786;28;20453;-71
2023/07/09 09:20:32;;;;;;;3.25;2.40;;;34.90;99.90;;;;;;5204563;28;20037;-70
2023/07/09 09:23:07;;;;;;;3.95;2.42;;;35.20;99.90;;;;;;5189466;28;20037;-72
2023/07/09 09:25:51;;;;;;;2.47;2.03;;;35.10;64.40;;;;;;5188532;28;20473;-70
2023/07/09 09:28:26;;;;;;;2.92;2.60;;;35.30;99.90;;;;;;5205217;28;20051;-71
2023/07/09 09:30:58;;;;;;;3.17;2.30;;;35.60;99.90;;;;;;5203742;28;20045;-71
2023/07/09 09:33:46;;;;;;;2.33;2.13;;;35.50;99.90;;;;;;5204710;28;20041;-71
2023/07/09 09:36:21;;;;;;;2.70;2.45;;;35.00;99.90;;;;;;5204283;28;20043;-71
2023/07/09 09:38:56;;;;;;;4.32;2.50;;;34.80;99.90;;;;;;5201128;28;20143;-70
2023/07/09 09:41:34;;;;;;;3.63;2.65;;;35.60;99.90;;;;;;5193940;28;20041;-71
2023/07/09 09:44:06;;;;;;;3.38;2.42;;;36.40;99.90;;;;;;5225422;28;20035;-71
2023/07/09 09:46:37;;;;;;;3.25;2.95;;;36.90;99.90;;;;;;5208073;28;20025;-71
2023/07/09 09:49:10;;;;;;;3.25;2.25;;;37.20;99.90;;;;;;5210215;28;20513;-70
2023/07/09 09:51:44;;;;;;;3.78;2.88;;;37.10;99.90;;;;;;5192791;28;20416;-70
2023/07/09 09:54:24;;;;;;;3.50;2.88;;;37.00;70.30;;;;;;5188999;28;20047;-70
2023/07/09 09:56:55;;;;;;;2.80;2.38;;;36.70;71.90;;;;;;5188314;28;20024;-72
2023/07/09 09:59:35;;;;;;;3.13;2.53;;;36.60;54.40;;;;;;5224974;28;20048;-70
2023/07/09 10:02:25;;;;;;;2.65;2.40;;;37.00;82.10;;;;;;5207854;28;20037;-70
2023/07/09 10:04:57;;;;;;;2.70;2.50;;;35.60;99.90;;;;;;5193017;28;20040;-70
2023/07/09 10:07:41;;;;;;;2.95;2.20;;;35.30;99.90;;;;;;5226715;28;20035;-70
2023/07/09 10:10:14;;;;;;;;;;;35.90;99.90;;;;;;5227689;28;20047;-71
2023/07/09 10:13:01;;;;;;;2.42;2.10;;;36.40;99.90;;;;;;5223531;28;20210;-71
2023/07/09 10:15:45;;;;;;;3.55;2.35;;;36.20;99.90;;;;;;5191442;28;20037;-70
2023/07/09 10:18:46;;;;;;;3.07;2.40;;;36.50;99.90;;;;;;5227492;28;20051;-70
2023/07/09 10:21:33;;;;;;;1.98;1.77;;;36.50;99.90;;;;;;5223984;28;20052;-72
2023/07/09 10:24:07;;;;;;;2.33;2.13;;;36.80;99.90;;;;;;5209119;28;20044;-70
2023/07/09 10:26:51;;;;;;;2.88;2.22;;;37.70;99.90;;;;;;5208608;28;20033;-70
2023/07/09 10:29:28;;;;;;;3.08;2.70;;;38.40;99.90;;;;;;5192809;28;20033;-71
2023/07/09 10:32:30;;;;;;;2.90;2.47;;;39.00;99.90;;;;;;5225646;28;20420;-70
2023/07/09 10:35:18;;;;;;;3.65;2.58;;;38.50;99.90;;;;;;5226695;28;20025;-70
2023/07/09 10:38:12;;;;;;;3.10;2.80;;;39.20;1.00;;;;;;5203983;28;20042;-72
2023/07/09 10:40:50;;;;;;;2.92;2.40;;;39.40;99.90;;;;;;5187570;28;20033;-71
2023/07/09 10:43:54;;;;;;;3.05;2.53;;;39.50;99.90;;;;;;5198811;28;20041;-71
2023/07/09 10:46:32;;;;;;;3.00;2.58;;;40.00;99.90;;;;;;5205162;28;20025;-70
2023/07/09 10:49:06;;;;;;;2.50;2.30;;;40.60;99.90;;;;;;5188384;28;20033;-72
2023/07/09 10:51:55;;;;;;;2.83;2.20;;;40.70;99.90;;;;;;5172003;28;20049;-71
2023/07/09 10:54:37;;;;;;;2.92;2.58;;;40.80;99.90;;;;;;5188060;28;20039;-72
2023/07/09 10:57:24;;;;;;;2.88;2.47;;;41.20;99.90;;;;;;5172024;28;20037;-71
2023/07/09 11:00:01;;;;;;;2.60;2.40;;;41.50;99.90;;;;;;5191766;28;20037;-70
2023/07/09 11:02:40;;;;;;;2.50;2.30;;;41.70;99.90;;;;;;5202060;28;20055;-70
2023/07/09 11:05:12;;;;;;;2.60;2.40;;;39.60;99.90;;;;;;5206766;28;20027;-70
2023/07/09 11:07:58;;;;;;;2.90;2.38;;;39.00;99.90;;;;;;5207728;28;20020;-71
2023/07/09 11:10:35;;;;;;;3.45;2.20;;;40.70;99.90;;;;;;5206808;28;20048;-70
2023/07/09 11:13:19;;;;;;;2.63;2.42;;;41.70;99.90;;;;;;5175085;28;20029;-70
2023/07/09 11:15:54;;;;;;;2.67;2.03;;;43.50;99.90;;;;;;5187646;28;20033;-71
2023/07/09 11:18:36;;;;;;;2.88;2.55;;;43.50;99.90;;;;;;5207059;28;20045;-72
2023/07/09 11:21:15;;;;;;;2.30;2.10;;;43.40;99.90;;;;;;5207549;28;20047;-71
2023/07/09 11:23:53;;;;;;;2.97;2.08;;;42.00;99.90;;;;;;5191839;28;20700;-71
2023/07/09 11:26:31;;;;;;;2.38;2.17;;;42.30;99.90;;;;;;5225955;28;20033;-70
2023/07/09 11:29:07;;;;;;;1.88;1.77;;;42.40;95.00;;;;;;5227077;28;20359;-70
2023/07/09 11:31:41;;;;;;;2.53;2.25;;;43.00;99.90;;;;;;5206314;28;20048;-72
2023/07/09 11:34:12;;;;;;;2.53;2.33;;;44.00;99.90;;;;;;5209554;28;20166;-70
2023/07/09 11:37:02;;;;;;;2.20;2.05;;;44.60;99.90;;;;;;5207045;28;20033;-72
2023/07/09 11:39:45;;;;;;;2.40;2.20;;;44.90;99.90;;;;;;5192225;28;20066;-71
2023/07/09 11:42:33;;;;;;;2.20;2.00;;;43.50;99.90;;;;;;5225529;28;20037;-70
2023/07/09 11:45:10;;;;;;;2.97;2.25;;;44.00;99.90;;;;;;5205838;28;20262;-70
2023/07/09 11:47:52;;;;;;;2.40;2.20;;;43.70;99.90;;;;;;5207082;28;20041;-71
2023/07/09 11:50:40;;;;;;;2.33;2.08;;;42.20;68.80;;;;;;5207015;28;20051;-72
2023/07/09 11:53:33;;;;;;;2.28;2.08;;;42.10;41.70;;;;;;5225080;28;20025;-70
2023/07/09 11:56:08;;;;;;;2.33;2.10;;;42.60;95.10;;;;;;5224295;28;20090;-71
2023/07/09 11:58:54;;;;;;;3.15;2.05;;;43.90;44.30;;;;;;5206763;28;20043;-73
2023/07/09 12:01:42;;;;;;;2.38;2.17;;;44.60;34.50;;;;;;5223187;28;20139;-71
2023/07/09 12:04:19;;;;;;;3.30;2.28;;;44.20;16.50;;;;;;5207687;28;20033;-70
2023/07/09 12:06:58;;;;;;;2.17;1.98;;;44.60;13.70;;;;;;5175647;28;20108;-70
2023/07/09 12:09:49;;;;;;;2.30;2.10;;;45.80;22.40;;;;;;5187286;28;20045;-71
2023/07/09 12:12:28;;;;;;;2.50;2.30;;;46.70;81.50;;;;;;5186995;28;20041;-71
2023/07/09 12:15:07;;;;;;;2.47;2.28;;;45.10;99.90;;;;;;5204629;28;20551;-71
2023/07/09 12:17:38;;;;;;;2.28;2.08;;;43.50;99.90;;;;;;5216562;28;20021;-69
2023/07/09 12:20:13;;;;;;;2.40;2.20;;;44.00;9.40;;;;;;5223724;28;20041;-70
2023/07/09 12:22:47;;;;;;;2.38;2.17;;;44.20;99.90;;;;;;5223782;28;20344;-71
2023/07/09 12:25:24;;;;;;;2.65;2.45;;;45.10;3.20;;;;;;5191435;28;20326;-70
2023/07/09 12:28:01;;;;;;;2.47;2.28;;;47.00;58.20;;;;;;5185890;28;20143;-71
2023/07/09 12:30:35;;;;;;;2.83;2.38;;;46.80;99.90;;;;;;5187186;28;20068;-71
2023/07/09 12:33:10;;;;;;;2.42;2.10;;;44.20;19.50;;;;;;5202783;28;20307;-70
2023/07/09 12:35:41;;;;;;;2.47;2.28;;;44.50;31.00;;;;;;5186787;28;20030;-70
2023/07/09 12:38:28;;;;;;;2.45;2.25;;;44.20;29.60;;;;;;5205575;28;20043;-70
2023/07/09 12:41:00;;;;;;;2.13;1.92;;;44.80;79.40;;;;;;5188263;28;20037;-71
2023/07/09 12:43:33;;;;;;;2.72;2.53;;;45.80;41.80;;;;;;5223570;28;20670;-71
2023/07/09 12:46:08;;;;;;;2.58;2.25;;;46.80;99.90;;;;;;5206044;28;20021;-70
2023/07/09 12:48:43;;;;;;;2.67;2.47;;;45.30;34.30;;;;;;5190089;28;20038;-70
2023/07/09 12:51:20;;;;;;;2.55;2.35;;;44.50;39.20;;;;;;5189710;28;20051;-70
2023/07/09 12:54:11;;;;;;;2.67;2.45;;;45.40;99.90;;;;;;5224752;28;20021;-71
2023/07/09 12:56:42;;;;;;;2.50;2.30;;;45.80;90.10;;;;;;5206362;28;20039;-70
2023/07/09 12:59:18;;;;;;;2.33;2.13;;;45.50;76.80;;;;;;5206048;28;20229;-70
2023/07/09 13:02:04;;;;;;;2.50;2.30;;;45.30;91.70;;;;;;5205096;28;20052;-71
2023/07/09 13:04:42;;;;;;;4.82;2.42;;;45.10;61.70;;;;;;5195553;28;20021;-70
2023/07/09 13:07:26;;;;;;;2.15;2.03;;;43.50;42.60;;;;;;5222090;28;20532;-70
2023/07/09 13:09:57;;;;;;;2.50;2.30;;;43.30;10.40;;;;;;5205941;28;20048;-72
2023/07/09 13:12:33;;;;;;;2.22;2.03;;;43.40;14.80;;;;;;5223979;28;20047;-70
2023/07/09 13:15:40;;;;;;;3.03;2.13;;;44.50;28.60;;;;;;5221023;28;20028;-70
2023/07/09 13:18:14;;;;;;;2.42;2.00;;;44.80;33.70;;;;;;5190757;28;20037;-73
2023/07/09 13:20:49;;;;;;;2.85;2.63;;;46.10;39.40;;;;;;5200270;28;20033;-72
2023/07/09 13:23:29;;;;;;;2.17;1.95;;;46.90;61.60;;;;;;5205958;28;20071;-70
2023/07/09 13:26:00;;;;;;;2.58;2.38;;;46.30;99.90;;;;;;5189715;28;20039;-71
2023/07/09 13:28:32;;;;;;;2.42;2.22;;;45.90;99.90;;;;;;5189358;28;20037;-71
2023/07/09 13:31:19;;;;;;;2.53;2.22;;;44.80;71.20;;;;;;5204170;28;20040;-72
2023/07/09 13:33:57;;;;;;;2.58;2.28;;;40.40;1.00;;;;;;5185309;28;20040;-70
2023/07/09 13:36:29;;;;;;;3.83;2.35;;;40.40;17.60;;;;;;5185439;28;20029;-70
2023/07/09 13:39:06;;;;;;;2.25;2.05;;;39.30;8.20;;;;;;5185244;28;20233;-70
2023/07/09 13:41:38;;;;;;;2.40;2.17;;;40.00;35.00;;;;;;5179822;28;20043;-70